sensor_id;sensor_type;location;lat;lon;timestamp;temperature;humidity
67163;DHT22;54092;53.088;8.850;2022-07-19T00:00:48;18.10;99.90
67163;DHT22;54092;53.088;8.850;2022-07-19T00:03:14;18.00;99.90
67163;DHT22;54092;53.088;8.850;2022-07-19T00:05:40;18.00;99.90
67163;DHT22;54092;53.088;8.850;2022-07-19T00:08:06;17.90;99.90
67163;DHT22;54092;53.088;8.850;2022-07-19T00:10:31;17.90;99.90
67163;DHT22;54092;53.088;8.850;2022-07-19T00:12:57;17.90;99.90
67163;DHT22;54092;53.088;8.850;2022-07-19T00:15:23;17.90;99.90
67163;DHT22;54092;53.088;8.850;2022-07-19T00:17:49;18.00;99.90
67163;DHT22;54092;53.088;8.850;2022-07-19T00:20:18;18.00;99.90
67163;DHT22;54092;53.088;8.850;2022-07-19T00:22:45;17.90;99.90
67163;DHT22;54092;53.088;8.850;2022-07-19T00:25:11;17.80;99.90
67163;DHT22;54092;53.088;8.850;2022-07-19T00:27:37;17.70;99.90
67163;DHT22;54092;53.088;8.850;2022-07-19T00:30:04;17.60;99.90
67163;DHT22;54092;53.088;8.850;2022-07-19T00:32:30;17.60;99.90
67163;DHT22;54092;53.088;8.850;2022-07-19T00:34:56;17.50;99.90
67163;DHT22;54092;53.088;8.850;2022-07-19T00:37:21;17.50;99.90
67163;DHT22;54092;53.088;8.850;2022-07-19T00:39:47;17.50;99.90
67163;DHT22;54092;53.088;8.850;2022-07-19T00:42:12;17.50;99.90
67163;DHT22;54092;53.088;8.850;2022-07-19T00:44:40;17.50;99.90
67163;DHT22;54092;53.088;8.850;2022-07-19T00:47:05;17.60;99.90
67163;DHT22;54092;53.088;8.850;2022-07-19T00:49:31;17.50;99.90
67163;DHT22;54092;53.088;8.850;2022-07-19T00:51:57;17.50;99.90
67163;DHT22;54092;53.088;8.850;2022-07-19T00:54:25;17.40;99.90
67163;DHT22;54092;53.088;8.850;2022-07-19T00:56:51;17.50;99.90
67163;DHT22;54092;53.088;8.850;2022-07-19T00:59:17;17.50;99.90
67163;DHT22;54092;53.088;8.850;2022-07-19T01:01:44;17.40;99.90
67163;DHT22;54092;53.088;8.850;2022-07-19T01:04:10;17.30;99.90
67163;DHT22;54092;53.088;8.850;2022-07-19T01:06:36;17.30;99.90
67163;DHT22;54092;53.088;8.850;2022-07-19T01:09:02;17.20;99.90
67163;DHT22;54092;53.088;8.850;2022-07-19T01:11:28;17.20;99.90
67163;DHT22;54092;53.088;8.850;2022-07-19T01:13:54;17.10;99.90
67163;DHT22;54092;53.088;8.850;2022-07-19T01:16:19;17.20;99.90
67163;DHT22;54092;53.088;8.850;2022-07-19T01:18:45;17.20;99.90
67163;DHT22;54092;53.088;8.850;2022-07-19T01:21:21;17.20;99.90
67163;DHT22;54092;53.088;8.850;2022-07-19T01:23:47;17.10;99.90
67163;DHT22;54092;53.088;8.850;2022-07-19T01:26:13;17.10;99.90
67163;DHT22;54092;53.088;8.850;2022-07-19T01:28:38;17.10;99.90
67163;DHT22;54092;53.088;8.850;2022-07-19T01:31:04;17.00;99.90
67163;DHT22;54092;53.088;8.850;2022-07-19T01:33:30;17.00;99.90
67163;DHT22;54092;53.088;8.850;2022-07-19T01:35:55;16.90;99.90
67163;DHT22;54092;53.088;8.850;2022-07-19T01:38:21;16.90;99.90
67163;DHT22;54092;53.088;8.850;2022-07-19T01:40:46;16.90;99.90
67163;DHT22;54092;53.088;8.850;2022-07-19T01:43:12;16.90;99.90
67163;DHT22;54092;53.088;8.850;2022-07-19T01:45:37;16.90;99.90
67163;DHT22;54092;53.088;8.850;2022-07-19T01:48:03;17.00;99.90
67163;DHT22;54092;53.088;8.850;2022-07-19T01:50:29;17.00;99.90
67163;DHT22;54092;53.088;8.850;2022-07-19T01:52:54;17.00;99.90
67163;DHT22;54092;53.088;8.850;2022-07-19T01:55:20;16.90;99.90
67163;DHT22;54092;53.088;8.850;2022-07-19T01:57:46;16.90;99.90
67163;DHT22;54092;53.088;8.850;2022-07-19T02:00:12;16.80;99.90
67163;DHT22;54092;53.088;8.850;2022-07-19T02:02:38;16.70;99.90
67163;DHT22;54092;53.088;8.850;2022-07-19T02:05:05;16.60;99.90
67163;DHT22;54092;53.088;8.850;2022-07-19T02:07:30;16.60;99.90
67163;DHT22;54092;53.088;8.850;2022-07-19T02:09:57;16.50;99.90
67163;DHT22;54092;53.088;8.850;2022-07-19T02:12:23;16.40;99.90
67163;DHT22;54092;53.088;8.850;2022-07-19T02:14:48;16.40;99.90
67163;DHT22;54092;53.088;8.850;2022-07-19T02:17:14;16.40;99.90
67163;DHT22;54092;53.088;8.850;2022-07-19T02:19:39;16.30;99.90
67163;DHT22;54092;53.088;8.850;2022-07-19T02:22:05;16.30;99.90
67163;DHT22;54092;53.088;8.850;2022-07-19T02:24:30;16.30;99.90
67163;DHT22;54092;53.088;8.850;2022-07-19T02:26:56;16.40;99.90
67163;DHT22;54092;53.088;8.850;2022-07-19T02:29:22;16.40;99.90
67163;DHT22;54092;53.088;8.850;2022-07-19T02:31:47;16.50;99.90
67163;DHT22;54092;53.088;8.850;2022-07-19T02:34:13;16.50;99.90
67163;DHT22;54092;53.088;8.850;2022-07-19T02:36:39;16.50;99.90
67163;DHT22;54092;53.088;8.850;2022-07-19T02:39:04;16.50;99.90
67163;DHT22;54092;53.088;8.850;2022-07-19T02:41:30;16.50;99.90
67163;DHT22;54092;53.088;8.850;2022-07-19T02:43:57;16.40;99.90
67163;DHT22;54092;53.088;8.850;2022-07-19T02:46:22;16.40;99.90
67163;DHT22;54092;53.088;8.850;2022-07-19T02:48:48;16.30;99.90
67163;DHT22;54092;53.088;8.850;2022-07-19T02:51:13;16.30;99.90
67163;DHT22;54092;53.088;8.850;2022-07-19T02:53:39;16.30;99.90
67163;DHT22;54092;53.088;8.850;2022-07-19T02:56:05;16.30;99.90
67163;DHT22;54092;53.088;8.850;2022-07-19T02:58:30;16.30;99.90
67163;DHT22;54092;53.088;8.850;2022-07-19T03:00:56;16.20;99.90
67163;DHT22;54092;53.088;8.850;2022-07-19T03:03:21;16.20;99.90
67163;DHT22;54092;53.088;8.850;2022-07-19T03:06:05;16.10;99.90
67163;DHT22;54092;53.088;8.850;2022-07-19T03:08:31;16.10;99.90
67163;DHT22;54092;53.088;8.850;2022-07-19T03:10:56;16.00;99.90
67163;DHT22;54092;53.088;8.850;2022-07-19T03:13:22;16.00;99.90
67163;DHT22;54092;53.088;8.850;2022-07-19T03:15:48;15.90;99.90
67163;DHT22;54092;53.088;8.850;2022-07-19T03:18:13;15.90;99.90
67163;DHT22;54092;53.088;8.850;2022-07-19T03:20:39;15.90;99.90
67163;DHT22;54092;53.088;8.850;2022-07-19T03:23:04;15.80;99.90
67163;DHT22;54092;53.088;8.850;2022-07-19T03:25:30;15.80;99.90
67163;DHT22;54092;53.088;8.850;2022-07-19T03:27:55;15.80;99.90
67163;DHT22;54092;53.088;8.850;2022-07-19T03:30:21;15.90;99.90
67163;DHT22;54092;53.088;8.850;2022-07-19T03:32:46;16.00;99.90
67163;DHT22;54092;53.088;8.850;2022-07-19T03:35:13;16.00;99.90
67163;DHT22;54092;53.088;8.850;2022-07-19T03:37:38;16.00;99.90
67163;DHT22;54092;53.088;8.850;2022-07-19T03:40:04;16.00;99.90
67163;DHT22;54092;53.088;8.850;2022-07-19T03:42:30;16.00;99.90
67163;DHT22;54092;53.088;8.850;2022-07-19T03:44:56;16.10;99.90
67163;DHT22;54092;53.088;8.850;2022-07-19T03:47:21;16.20;99.90
67163;DHT22;54092;53.088;8.850;2022-07-19T03:49:47;16.10;99.90
67163;DHT22;54092;53.088;8.850;2022-07-19T03:52:12;16.20;99.90
67163;DHT22;54092;53.088;8.850;2022-07-19T03:54:39;16.20;99.90
67163;DHT22;54092;53.088;8.850;2022-07-19T03:57:04;16.20;99.90
67163;DHT22;54092;53.088;8.850;2022-07-19T03:59:30;16.20;99.90
67163;DHT22;54092;53.088;8.850;2022-07-19T04:01:55;16.20;99.90
67163;DHT22;54092;53.088;8.850;2022-07-19T04:04:21;16.20;99.90
67163;DHT22;54092;53.088;8.850;2022-07-19T04:06:46;16.20;99.90
67163;DHT22;54092;53.088;8.850;2022-07-19T04:09:12;16.20;99.90
67163;DHT22;54092;53.088;8.850;2022-07-19T04:11:37;16.20;99.90
67163;DHT22;54092;53.088;8.850;2022-07-19T04:14:03;16.20;99.90
67163;DHT22;54092;53.088;8.850;2022-07-19T04:16:28;16.30;99.90
67163;DHT22;54092;53.088;8.850;2022-07-19T04:18:54;16.30;99.90
67163;DHT22;54092;53.088;8.850;2022-07-19T04:21:19;16.30;99.90
67163;DHT22;54092;53.088;8.850;2022-07-19T04:23:45;16.40;99.90
67163;DHT22;54092;53.088;8.850;2022-07-19T04:26:11;16.40;99.90
67163;DHT22;54092;53.088;8.850;2022-07-19T04:28:36;16.50;99.90
67163;DHT22;54092;53.088;8.850;2022-07-19T04:31:02;16.60;99.90
67163;DHT22;54092;53.088;8.850;2022-07-19T04:33:27;16.70;99.90
67163;DHT22;54092;53.088;8.850;2022-07-19T04:35:53;16.70;99.90
67163;DHT22;54092;53.088;8.850;2022-07-19T04:38:20;16.80;99.90
67163;DHT22;54092;53.088;8.850;2022-07-19T04:40:46;16.80;99.90
67163;DHT22;54092;53.088;8.850;2022-07-19T04:43:11;16.70;99.90
67163;DHT22;54092;53.088;8.850;2022-07-19T04:45:37;16.80;99.90
67163;DHT22;54092;53.088;8.850;2022-07-19T04:48:05;16.90;99.90
67163;DHT22;54092;53.088;8.850;2022-07-19T04:50:30;16.90;99.90
67163;DHT22;54092;53.088;8.850;2022-07-19T04:52:56;17.00;99.90
67163;DHT22;54092;53.088;8.850;2022-07-19T04:55:21;17.10;99.90
67163;DHT22;54092;53.088;8.850;2022-07-19T04:57:47;17.20;99.90
67163;DHT22;54092;53.088;8.850;2022-07-19T05:00:12;17.30;99.90
67163;DHT22;54092;53.088;8.850;2022-07-19T05:02:38;17.50;99.90
67163;DHT22;54092;53.088;8.850;2022-07-19T05:05:04;17.60;99.90
67163;DHT22;54092;53.088;8.850;2022-07-19T05:07:30;17.70;99.90
67163;DHT22;54092;53.088;8.850;2022-07-19T05:09:56;17.80;99.90
67163;DHT22;54092;53.088;8.850;2022-07-19T05:12:21;17.90;99.90
67163;DHT22;54092;53.088;8.850;2022-07-19T05:14:47;18.20;99.90
67163;DHT22;54092;53.088;8.850;2022-07-19T05:17:13;18.30;99.90
67163;DHT22;54092;53.088;8.850;2022-07-19T05:19:38;18.40;99.90
67163;DHT22;54092;53.088;8.850;2022-07-19T05:22:04;18.50;99.90
67163;DHT22;54092;53.088;8.850;2022-07-19T05:24:29;18.60;99.90
67163;DHT22;54092;53.088;8.850;2022-07-19T05:26:55;18.80;99.90
67163;DHT22;54092;53.088;8.850;2022-07-19T05:29:20;18.90;99.90
67163;DHT22;54092;53.088;8.850;2022-07-19T05:31:46;19.00;99.90
67163;DHT22;54092;53.088;8.850;2022-07-19T05:34:11;19.20;99.90
67163;DHT22;54092;53.088;8.850;2022-07-19T05:36:37;19.30;99.90
67163;DHT22;54092;53.088;8.850;2022-07-19T05:39:03;19.50;99.90
67163;DHT22;54092;53.088;8.850;2022-07-19T05:41:29;19.60;99.90
67163;DHT22;54092;53.088;8.850;2022-07-19T05:43:54;19.80;99.90
67163;DHT22;54092;53.088;8.850;2022-07-19T05:46:20;20.00;99.90
67163;DHT22;54092;53.088;8.850;2022-07-19T05:48:47;20.10;99.90
67163;DHT22;54092;53.088;8.850;2022-07-19T05:51:13;20.20;99.90
67163;DHT22;54092;53.088;8.850;2022-07-19T05:53:38;20.30;97.20
67163;DHT22;54092;53.088;8.850;2022-07-19T05:56:05;20.50;99.00
67163;DHT22;54092;53.088;8.850;2022-07-19T05:58:31;20.70;95.10
67163;DHT22;54092;53.088;8.850;2022-07-19T06:00:56;20.70;95.00
67163;DHT22;54092;53.088;8.850;2022-07-19T06:03:40;20.80;94.00
67163;DHT22;54092;53.088;8.850;2022-07-19T06:06:06;21.00;95.90
67163;DHT22;54092;53.088;8.850;2022-07-19T06:08:32;21.10;96.40
67163;DHT22;54092;53.088;8.850;2022-07-19T06:10:58;21.20;92.20
67163;DHT22;54092;53.088;8.850;2022-07-19T06:13:24;21.40;92.20
67163;DHT22;54092;53.088;8.850;2022-07-19T06:15:50;21.50;87.80
67163;DHT22;54092;53.088;8.850;2022-07-19T06:18:16;21.70;75.50
67163;DHT22;54092;53.088;8.850;2022-07-19T06:20:41;21.80;71.40
67163;DHT22;54092;53.088;8.850;2022-07-19T06:23:07;22.00;68.90
67163;DHT22;54092;53.088;8.850;2022-07-19T06:25:32;22.10;66.80
67163;DHT22;54092;53.088;8.850;2022-07-19T06:27:58;22.20;71.40
67163;DHT22;54092;53.088;8.850;2022-07-19T06:30:24;22.30;69.30
67163;DHT22;54092;53.088;8.850;2022-07-19T06:32:49;22.40;65.70
67163;DHT22;54092;53.088;8.850;2022-07-19T06:35:15;22.60;64.50
67163;DHT22;54092;53.088;8.850;2022-07-19T06:37:40;22.70;62.10
67163;DHT22;54092;53.088;8.850;2022-07-19T06:40:06;22.80;59.30
67163;DHT22;54092;53.088;8.850;2022-07-19T06:42:32;23.00;58.20
67163;DHT22;54092;53.088;8.850;2022-07-19T06:44:58;23.10;57.10
67163;DHT22;54092;53.088;8.850;2022-07-19T06:47:27;23.20;54.50
67163;DHT22;54092;53.088;8.850;2022-07-19T06:49:53;23.40;52.80
67163;DHT22;54092;53.088;8.850;2022-07-19T06:52:18;23.60;51.60
67163;DHT22;54092;53.088;8.850;2022-07-19T06:54:44;23.70;52.10
67163;DHT22;54092;53.088;8.850;2022-07-19T06:57:09;23.90;50.20
67163;DHT22;54092;53.088;8.850;2022-07-19T06:59:35;24.00;48.00
67163;DHT22;54092;53.088;8.850;2022-07-19T07:02:00;24.10;47.80
67163;DHT22;54092;53.088;8.850;2022-07-19T07:04:27;24.20;46.80
67163;DHT22;54092;53.088;8.850;2022-07-19T07:06:52;24.30;46.70
67163;DHT22;54092;53.088;8.850;2022-07-19T07:09:18;24.40;47.00
67163;DHT22;54092;53.088;8.850;2022-07-19T07:11:43;24.50;46.20
67163;DHT22;54092;53.088;8.850;2022-07-19T07:14:09;24.60;45.40
67163;DHT22;54092;53.088;8.850;2022-07-19T07:16:34;24.70;45.50
67163;DHT22;54092;53.088;8.850;2022-07-19T07:19:00;24.80;45.20
67163;DHT22;54092;53.088;8.850;2022-07-19T07:21:25;25.00;45.50
67163;DHT22;54092;53.088;8.850;2022-07-19T07:23:51;25.10;45.40
67163;DHT22;54092;53.088;8.850;2022-07-19T07:26:16;25.30;44.90
67163;DHT22;54092;53.088;8.850;2022-07-19T07:28:42;25.40;43.60
67163;DHT22;54092;53.088;8.850;2022-07-19T07:31:07;25.50;43.50
67163;DHT22;54092;53.088;8.850;2022-07-19T07:33:33;25.70;44.10
67163;DHT22;54092;53.088;8.850;2022-07-19T07:35:58;25.80;44.30
67163;DHT22;54092;53.088;8.850;2022-07-19T07:38:24;25.90;44.50
67163;DHT22;54092;53.088;8.850;2022-07-19T07:40:49;26.00;44.00
67163;DHT22;54092;53.088;8.850;2022-07-19T07:43:15;26.20;43.90
67163;DHT22;54092;53.088;8.850;2022-07-19T07:45:40;26.20;43.80
67163;DHT22;54092;53.088;8.850;2022-07-19T07:48:06;26.40;42.60
67163;DHT22;54092;53.088;8.850;2022-07-19T07:50:32;26.40;41.30
67163;DHT22;54092;53.088;8.850;2022-07-19T07:52:57;26.50;40.00
67163;DHT22;54092;53.088;8.850;2022-07-19T07:55:23;26.60;40.30
67163;DHT22;54092;53.088;8.850;2022-07-19T07:57:48;26.80;40.60
67163;DHT22;54092;53.088;8.850;2022-07-19T08:00:14;26.80;40.40
67163;DHT22;54092;53.088;8.850;2022-07-19T08:02:41;26.90;41.00
67163;DHT22;54092;53.088;8.850;2022-07-19T08:05:07;27.00;40.60
67163;DHT22;54092;53.088;8.850;2022-07-19T08:07:33;27.20;39.10
67163;DHT22;54092;53.088;8.850;2022-07-19T08:09:58;27.30;37.90
67163;DHT22;54092;53.088;8.850;2022-07-19T08:12:25;27.50;38.30
67163;DHT22;54092;53.088;8.850;2022-07-19T08:14:51;27.60;37.20
67163;DHT22;54092;53.088;8.850;2022-07-19T08:17:17;27.70;37.10
67163;DHT22;54092;53.088;8.850;2022-07-19T08:19:42;27.90;36.70
67163;DHT22;54092;53.088;8.850;2022-07-19T08:22:08;28.00;36.00
67163;DHT22;54092;53.088;8.850;2022-07-19T08:24:33;28.20;36.80
67163;DHT22;54092;53.088;8.850;2022-07-19T08:26:59;28.40;37.30
67163;DHT22;54092;53.088;8.850;2022-07-19T08:29:24;28.40;35.10
67163;DHT22;54092;53.088;8.850;2022-07-19T08:31:50;28.60;36.60
67163;DHT22;54092;53.088;8.850;2022-07-19T08:34:15;28.80;35.50
67163;DHT22;54092;53.088;8.850;2022-07-19T08:36:41;28.90;33.70
67163;DHT22;54092;53.088;8.850;2022-07-19T08:39:06;29.10;34.90
67163;DHT22;54092;53.088;8.850;2022-07-19T08:41:33;29.10;32.10
67163;DHT22;54092;53.088;8.850;2022-07-19T08:44:02;29.20;31.90
67163;DHT22;54092;53.088;8.850;2022-07-19T08:46:28;29.30;33.10
67163;DHT22;54092;53.088;8.850;2022-07-19T08:48:54;29.30;32.50
67163;DHT22;54092;53.088;8.850;2022-07-19T08:51:20;29.40;32.60
67163;DHT22;54092;53.088;8.850;2022-07-19T08:53:49;29.50;30.70
67163;DHT22;54092;53.088;8.850;2022-07-19T08:56:15;29.60;30.90
67163;DHT22;54092;53.088;8.850;2022-07-19T08:58:59;29.80;30.20
67163;DHT22;54092;53.088;8.850;2022-07-19T09:01:25;30.00;30.70
67163;DHT22;54092;53.088;8.850;2022-07-19T09:04:15;30.30;30.30
67163;DHT22;54092;53.088;8.850;2022-07-19T09:06:43;30.50;30.00
67163;DHT22;54092;53.088;8.850;2022-07-19T09:09:09;30.80;30.30
67163;DHT22;54092;53.088;8.850;2022-07-19T09:11:40;30.90;29.30
67163;DHT22;54092;53.088;8.850;2022-07-19T09:14:15;31.20;29.50
67163;DHT22;54092;53.088;8.850;2022-07-19T09:17:04;31.80;28.20
67163;DHT22;54092;53.088;8.850;2022-07-19T09:19:33;32.50;27.60
67163;DHT22;54092;53.088;8.850;2022-07-19T09:22:08;33.10;28.40
67163;DHT22;54092;53.088;8.850;2022-07-19T09:24:36;33.40;25.70
67163;DHT22;54092;53.088;8.850;2022-07-19T09:29:28;34.40;25.50
67163;DHT22;54092;53.088;8.850;2022-07-19T09:32:05;34.20;23.30
67163;DHT22;54092;53.088;8.850;2022-07-19T09:34:40;33.80;23.50
67163;DHT22;54092;53.088;8.850;2022-07-19T09:39:37;34.40;24.50
67163;DHT22;54092;53.088;8.850;2022-07-19T09:42:08;35.10;23.60
67163;DHT22;54092;53.088;8.850;2022-07-19T09:44:34;34.90;23.80
67163;DHT22;54092;53.088;8.850;2022-07-19T09:46:59;35.00;23.20
67163;DHT22;54092;53.088;8.850;2022-07-19T09:49:25;34.90;23.80
67163;DHT22;54092;53.088;8.850;2022-07-19T09:51:53;35.40;22.60
67163;DHT22;54092;53.088;8.850;2022-07-19T09:54:24;35.50;22.30
67163;DHT22;54092;53.088;8.850;2022-07-19T09:56:50;35.60;21.90
67163;DHT22;54092;53.088;8.850;2022-07-19T09:59:17;35.80;21.70
67163;DHT22;54092;53.088;8.850;2022-07-19T10:01:43;35.30;21.10
67163;DHT22;54092;53.088;8.850;2022-07-19T10:04:11;35.30;21.80
67163;DHT22;54092;53.088;8.850;2022-07-19T10:06:37;35.90;22.20
67163;DHT22;54092;53.088;8.850;2022-07-19T10:09:05;36.60;21.20
67163;DHT22;54092;53.088;8.850;2022-07-19T10:11:31;36.90;20.60
67163;DHT22;54092;53.088;8.850;2022-07-19T10:13:57;36.90;20.40
67163;DHT22;54092;53.088;8.850;2022-07-19T10:16:49;36.30;20.20
67163;DHT22;54092;53.088;8.850;2022-07-19T10:19:22;36.40;19.90
67163;DHT22;54092;53.088;8.850;2022-07-19T10:21:52;36.40;20.10
67163;DHT22;54092;53.088;8.850;2022-07-19T10:27:51;37.30;19.90
67163;DHT22;54092;53.088;8.850;2022-07-19T10:30:20;37.40;18.50
67163;DHT22;54092;53.088;8.850;2022-07-19T10:32:49;37.50;19.60
67163;DHT22;54092;53.088;8.850;2022-07-19T10:37:54;38.30;18.90
67163;DHT22;54092;53.088;8.850;2022-07-19T10:40:53;38.50;17.70
67163;DHT22;54092;53.088;8.850;2022-07-19T10:43:24;38.90;17.30
67163;DHT22;54092;53.088;8.850;2022-07-19T10:48:35;38.30;17.50
67163;DHT22;54092;53.088;8.850;2022-07-19T10:51:01;38.40;17.60
67163;DHT22;54092;53.088;8.850;2022-07-19T10:56:22;38.10;18.50
67163;DHT22;54092;53.088;8.850;2022-07-19T10:59:15;38.70;17.90
67163;DHT22;54092;53.088;8.850;2022-07-19T11:01:56;39.80;17.80
67163;DHT22;54092;53.088;8.850;2022-07-19T11:04:29;40.00;17.40
67163;DHT22;54092;53.088;8.850;2022-07-19T11:07:13;39.00;17.40
67163;DHT22;54092;53.088;8.850;2022-07-19T11:09:45;39.80;17.30
67163;DHT22;54092;53.088;8.850;2022-07-19T11:12:26;39.70;16.70
67163;DHT22;54092;53.088;8.850;2022-07-19T11:14:52;39.60;16.60
67163;DHT22;54092;53.088;8.850;2022-07-19T11:17:18;38.80;17.10
67163;DHT22;54092;53.088;8.850;2022-07-19T11:20:10;39.70;16.90
67163;DHT22;54092;53.088;8.850;2022-07-19T11:22:39;40.30;16.00
67163;DHT22;54092;53.088;8.850;2022-07-19T11:25:06;39.60;16.30
67163;DHT22;54092;53.088;8.850;2022-07-19T11:27:32;39.30;16.70
67163;DHT22;54092;53.088;8.850;2022-07-19T11:30:01;39.70;16.50
67163;DHT22;54092;53.088;8.850;2022-07-19T11:32:27;40.00;16.70
67163;DHT22;54092;53.088;8.850;2022-07-19T11:34:58;40.00;16.20
67163;DHT22;54092;53.088;8.850;2022-07-19T11:37:26;40.20;15.40
67163;DHT22;54092;53.088;8.850;2022-07-19T11:39:52;40.20;15.60
67163;DHT22;54092;53.088;8.850;2022-07-19T11:42:33;39.60;16.40
67163;DHT22;54092;53.088;8.850;2022-07-19T11:44:59;39.30;16.10
67163;DHT22;54092;53.088;8.850;2022-07-19T11:47:25;40.10;16.10
67163;DHT22;54092;53.088;8.850;2022-07-19T11:49:50;41.00;15.40
67163;DHT22;54092;53.088;8.850;2022-07-19T11:52:16;41.20;14.90
67163;DHT22;54092;53.088;8.850;2022-07-19T11:54:41;39.50;15.10
67163;DHT22;54092;53.088;8.850;2022-07-19T11:57:23;39.60;16.00
67163;DHT22;54092;53.088;8.850;2022-07-19T11:59:49;39.80;15.90
67163;DHT22;54092;53.088;8.850;2022-07-19T12:02:14;40.10;15.80
67163;DHT22;54092;53.088;8.850;2022-07-19T12:04:40;39.70;15.10
67163;DHT22;54092;53.088;8.850;2022-07-19T12:07:06;39.50;15.60
67163;DHT22;54092;53.088;8.850;2022-07-19T12:09:31;39.90;16.00
67163;DHT22;54092;53.088;8.850;2022-07-19T12:11:59;40.30;15.50
67163;DHT22;54092;53.088;8.850;2022-07-19T12:14:31;40.90;15.10
67163;DHT22;54092;53.088;8.850;2022-07-19T12:17:19;40.70;15.30
67163;DHT22;54092;53.088;8.850;2022-07-19T12:19:47;41.50;15.20
67163;DHT22;54092;53.088;8.850;2022-07-19T12:22:33;41.40;14.20
67163;DHT22;54092;53.088;8.850;2022-07-19T12:24:59;41.50;14.40
67163;DHT22;54092;53.088;8.850;2022-07-19T12:27:25;41.50;13.90
67163;DHT22;54092;53.088;8.850;2022-07-19T12:29:54;41.60;14.20
67163;DHT22;54092;53.088;8.850;2022-07-19T12:32:32;41.40;14.50
67163;DHT22;54092;53.088;8.850;2022-07-19T12:35:02;41.10;14.80
67163;DHT22;54092;53.088;8.850;2022-07-19T12:37:37;40.60;14.90
67163;DHT22;54092;53.088;8.850;2022-07-19T12:45:11;41.80;14.50
67163;DHT22;54092;53.088;8.850;2022-07-19T12:47:37;42.10;14.80
67163;DHT22;54092;53.088;8.850;2022-07-19T12:50:03;41.30;14.40
67163;DHT22;54092;53.088;8.850;2022-07-19T12:52:29;41.00;14.70
67163;DHT22;54092;53.088;8.850;2022-07-19T12:54:55;40.70;15.40
67163;DHT22;54092;53.088;8.850;2022-07-19T12:57:20;39.90;15.40
67163;DHT22;54092;53.088;8.850;2022-07-19T12:59:46;38.80;16.20
67163;DHT22;54092;53.088;8.850;2022-07-19T13:02:14;38.50;16.30
67163;DHT22;54092;53.088;8.850;2022-07-19T13:04:41;38.20;16.30
67163;DHT22;54092;53.088;8.850;2022-07-19T13:07:08;37.90;17.00
67163;DHT22;54092;53.088;8.850;2022-07-19T13:09:34;37.50;16.70
67163;DHT22;54092;53.088;8.850;2022-07-19T13:12:01;37.40;17.30
67163;DHT22;54092;53.088;8.850;2022-07-19T13:14:27;37.00;17.50
67163;DHT22;54092;53.088;8.850;2022-07-19T13:16:52;36.40;18.10
67163;DHT22;54092;53.088;8.850;2022-07-19T13:19:18;36.10;18.50
67163;DHT22;54092;53.088;8.850;2022-07-19T13:21:43;35.60;18.40
67163;DHT22;54092;53.088;8.850;2022-07-19T13:24:09;35.50;18.90
67163;DHT22;54092;53.088;8.850;2022-07-19T13:26:35;35.50;18.70
67163;DHT22;54092;53.088;8.850;2022-07-19T13:29:00;35.50;19.40
67163;DHT22;54092;53.088;8.850;2022-07-19T13:31:26;35.50;18.10
67163;DHT22;54092;53.088;8.850;2022-07-19T13:33:51;35.50;18.90
67163;DHT22;54092;53.088;8.850;2022-07-19T13:36:17;35.50;18.80
67163;DHT22;54092;53.088;8.850;2022-07-19T13:38:42;35.40;18.30
67163;DHT22;54092;53.088;8.850;2022-07-19T13:41:08;35.30;18.80
67163;DHT22;54092;53.088;8.850;2022-07-19T13:43:34;35.30;18.90
67163;DHT22;54092;53.088;8.850;2022-07-19T13:45:59;35.30;18.90
67163;DHT22;54092;53.088;8.850;2022-07-19T13:48:26;35.30;19.20
67163;DHT22;54092;53.088;8.850;2022-07-19T13:50:52;35.30;18.70
67163;DHT22;54092;53.088;8.850;2022-07-19T13:53:17;35.10;19.30
67163;DHT22;54092;53.088;8.850;2022-07-19T13:55:43;35.20;19.40
67163;DHT22;54092;53.088;8.850;2022-07-19T13:58:08;35.20;19.00
67163;DHT22;54092;53.088;8.850;2022-07-19T14:00:34;35.20;19.50
67163;DHT22;54092;53.088;8.850;2022-07-19T14:03:00;35.30;19.00
67163;DHT22;54092;53.088;8.850;2022-07-19T14:05:25;35.20;19.70
67163;DHT22;54092;53.088;8.850;2022-07-19T14:07:51;35.20;19.10
67163;DHT22;54092;53.088;8.850;2022-07-19T14:10:16;35.10;19.50
67163;DHT22;54092;53.088;8.850;2022-07-19T14:12:42;35.00;19.20
67163;DHT22;54092;53.088;8.850;2022-07-19T14:15:08;35.00;19.80
67163;DHT22;54092;53.088;8.850;2022-07-19T14:17:34;35.00;19.40
67163;DHT22;54092;53.088;8.850;2022-07-19T14:20:00;35.00;18.80
67163;DHT22;54092;53.088;8.850;2022-07-19T14:22:25;35.10;19.60
67163;DHT22;54092;53.088;8.850;2022-07-19T14:24:51;35.00;19.50
67163;DHT22;54092;53.088;8.850;2022-07-19T14:27:16;35.00;18.90
67163;DHT22;54092;53.088;8.850;2022-07-19T14:29:42;35.00;19.60
67163;DHT22;54092;53.088;8.850;2022-07-19T14:32:08;34.90;18.90
67163;DHT22;54092;53.088;8.850;2022-07-19T14:34:33;34.90;19.90
67163;DHT22;54092;53.088;8.850;2022-07-19T14:36:59;34.90;19.70
67163;DHT22;54092;53.088;8.850;2022-07-19T14:39:24;34.90;19.80
67163;DHT22;54092;53.088;8.850;2022-07-19T14:41:50;34.90;19.90
67163;DHT22;54092;53.088;8.850;2022-07-19T14:44:15;35.00;20.00
67163;DHT22;54092;53.088;8.850;2022-07-19T14:46:41;35.00;19.70
67163;DHT22;54092;53.088;8.850;2022-07-19T14:49:06;35.00;20.10
67163;DHT22;54092;53.088;8.850;2022-07-19T14:51:32;35.10;19.30
67163;DHT22;54092;53.088;8.850;2022-07-19T14:53:57;35.20;18.50
67163;DHT22;54092;53.088;8.850;2022-07-19T14:56:26;35.10;18.70
67163;DHT22;54092;53.088;8.850;2022-07-19T14:58:52;35.20;19.10
67163;DHT22;54092;53.088;8.850;2022-07-19T15:01:17;35.20;18.80
67163;DHT22;54092;53.088;8.850;2022-07-19T15:03:43;35.10;19.30
67163;DHT22;54092;53.088;8.850;2022-07-19T15:06:08;35.10;19.80
67163;DHT22;54092;53.088;8.850;2022-07-19T15:08:34;35.00;19.40
67163;DHT22;54092;53.088;8.850;2022-07-19T15:10:59;35.00;19.90
67163;DHT22;54092;53.088;8.850;2022-07-19T15:13:25;35.00;20.00
67163;DHT22;54092;53.088;8.850;2022-07-19T15:15:50;35.10;19.10
67163;DHT22;54092;53.088;8.850;2022-07-19T15:18:17;35.20;18.80
67163;DHT22;54092;53.088;8.850;2022-07-19T15:20:42;35.20;18.70
67163;DHT22;54092;53.088;8.850;2022-07-19T15:23:10;35.20;18.80
67163;DHT22;54092;53.088;8.850;2022-07-19T15:25:35;35.30;19.20
67163;DHT22;54092;53.088;8.850;2022-07-19T15:28:01;35.30;18.90
67163;DHT22;54092;53.088;8.850;2022-07-19T15:30:26;35.30;18.80
67163;DHT22;54092;53.088;8.850;2022-07-19T15:32:52;35.20;18.80
67163;DHT22;54092;53.088;8.850;2022-07-19T15:35:17;35.10;18.60
67163;DHT22;54092;53.088;8.850;2022-07-19T15:37:43;35.20;18.60
67163;DHT22;54092;53.088;8.850;2022-07-19T15:40:09;35.10;18.60
67163;DHT22;54092;53.088;8.850;2022-07-19T15:42:47;35.00;18.80
67163;DHT22;54092;53.088;8.850;2022-07-19T15:45:13;34.90;19.10
67163;DHT22;54092;53.088;8.850;2022-07-19T15:47:39;34.90;19.20
67163;DHT22;54092;53.088;8.850;2022-07-19T15:50:07;34.80;19.00